Time;durP1;ratioP1;P1;durP2;ratioP2;P2;SDS_P1;SDS_P2;PMS_P1;PMS_P2;Temp;Humidity;BMP_temperature;BMP_pressure;BME280_temperature;BME280_humidity;BME280_pressure;Samples;Min_cycle;Max_cycle;Signal;HPM_P1;HPM_P2
2023/03/29 00:00:52;;;;;;;;;;;;;;;11.03;34.04;101569.06;5049141;28;19921;-83
2023/03/29 00:03:44;;;;;;;;;;;;;;;11.08;33.81;101582.59;5048806;28;19917;-84
2023/03/29 00:06:33;;;;;;;;;;;;;;;10.99;34.65;101578.94;5048120;28;19917;-83
2023/03/29 00:09:25;;;;;;;;;;;;;;;11.01;34.80;101569.41;5045857;28;19917;-84
2023/03/29 00:12:17;;;;;;;;;;;;;;;11.06;34.65;101568.50;5047595;28;20385;-84
2023/03/29 00:15:08;;;;;;;;;;;;;;;11.05;34.75;101562.25;5041177;28;19917;-84
2023/03/29 00:17:57;;;;;;;;;;;;;;;11.00;35.05;101559.59;5042914;28;19917;-83
2023/03/29 00:20:55;;;;;;;;;;;;;;;11.04;35.26;101562.53;5047390;28;19921;-83
2023/03/29 00:23:45;;;;;;;;;;;;;;;11.03;35.23;101559.00;5047724;28;20297;-83
2023/03/29 00:26:37;;;;;;;;;;;;;;;11.05;35.06;101559.53;5049100;28;19917;-83
2023/03/29 00:29:29;;;;;;;;;;;;;;;11.14;34.96;101554.19;5049770;28;19917;-83
2023/03/29 00:32:21;;;;;;;;;;;;;;;11.11;35.19;101555.63;5042283;28;19921;-84
2023/03/29 00:35:08;;;;;;;;;;;;;;;11.12;35.05;101551.00;5044860;28;20388;-83
2023/03/29 00:38:01;;;;;;;;;;;;;;;11.06;35.29;101536.66;5046360;28;19917;-84
2023/03/29 00:40:54;;;;;;;;;;;;;;;11.07;35.05;101538.25;5027715;28;19917;-83
2023/03/29 00:43:59;;;;;;;;;;;;;;;11.06;35.04;101525.75;5036180;28;19916;-83
2023/03/29 00:46:51;;;;;;;;;;;;;;;11.02;35.24;101530.16;5040200;28;19921;-84
2023/03/29 00:49:43;;;;;;;;;;;;;;;10.90;35.79;101516.25;5046356;28;19917;-83
2023/03/29 00:52:36;;;;;;;;;;;;;;;10.96;35.99;101511.53;5042939;28;19921;-83
2023/03/29 00:55:31;;;;;;;;;;;;;;;11.04;36.15;101508.91;5051908;28;19917;-83
2023/03/29 00:58:30;;;;;;;;;;;;;;;11.08;35.84;101500.94;5046520;28;19922;-83
2023/03/29 01:01:24;;;;;;;;;;;;;;;11.12;35.88;101504.72;5045603;28;19917;-83
2023/03/29 01:04:31;;;;;;;;;;;;;;;11.09;36.06;101489.78;5042177;28;20284;-84
2023/03/29 01:07:28;;;;;;;;;;;;;;;11.16;35.36;101470.34;5047270;28;19921;-83
2023/03/29 01:10:30;;;;;;;;;;;;;;;11.13;35.26;101449.13;5046452;28;19917;-83
2023/03/29 01:13:35;;;;;;;;;;;;;;;11.15;35.18;101452.38;5049669;28;20439;-83
2023/03/29 01:16:27;;;;;;;;;;;;;;;11.15;35.40;101464.09;5036425;28;19917;-83
2023/03/29 01:19:20;;;;;;;;;;;;;;;11.21;35.66;101461.25;5042316;28;19921;-83
2023/03/29 01:22:28;;;;;;;;;;;;;;;11.25;35.30;101445.94;5043577;28;19917;-83
2023/03/29 01:25:37;;;;;;;;;;;;;;;11.30;36.06;101446.66;5027925;28;19917;-84
2023/03/29 01:28:31;;;;;;;;;;;;;;;11.37;36.90;101447.06;5049146;28;19917;-83
2023/03/29 01:31:32;;;;;;;;;;;;;;;11.37;38.71;101448.97;5046251;28;19925;-83
2023/03/29 01:34:28;;;;;;;;;;;;;;;11.24;37.00;101460.66;5048591;28;19917;-83
2023/03/29 01:37:23;;;;;;;;;;;;;;;11.15;37.41;101460.56;5037771;28;19917;-82
2023/03/29 01:40:13;;;;;;;;;;;;;;;11.19;37.74;101466.19;5042819;28;19921;-83
2023/03/29 01:43:13;;;;;;;;;;;;;;;11.32;36.31;101462.69;5047879;28;19917;-83
2023/03/29 01:46:05;;;;;;;;;;;;;;;11.33;36.26;101470.53;5038637;28;19918;-83
2023/03/29 01:48:56;;;;;;;;;;;;;;;11.26;37.51;101477.50;5045645;28;19917;-83
2023/03/29 01:51:48;;;;;;;;;;;;;;;11.29;37.12;101479.59;5045129;28;19921;-83
2023/03/29 01:54:44;;;;;;;;;;;;;;;11.18;37.04;101475.47;5043728;28;19917;-83
2023/03/29 01:57:34;;;;;;;;;;;;;;;11.28;35.81;101469.81;5044760;28;19918;-83
2023/03/29 02:00:26;;;;;;;;;;;;;;;11.31;35.28;101456.44;5046301;28;19917;-83
2023/03/29 02:03:17;;;;;;;;;;;;;;;11.19;37.08;101456.13;5040995;28;19917;-83
2023/03/29 02:06:10;;;;;;;;;;;;;;;11.07;37.79;101456.59;5027941;28;19917;-83
2023/03/29 02:09:02;;;;;;;;;;;;;;;11.08;37.84;101462.84;5025656;28;19917;-83
2023/03/29 02:11:55;;;;;;;;;;;;;;;11.11;38.02;101468.50;5044520;28;19921;-83
2023/03/29 02:14:47;;;;;;;;;;;;;;;11.09;38.12;101464.47;5039572;28;19917;-83
2023/03/29 02:17:39;;;;;;;;;;;;;;;11.18;37.95;101472.75;5042943;28;19921;-83
2023/03/29 02:20:33;;;;;;;;;;;;;;;11.13;38.36;101477.16;5044034;28;19917;-83
2023/03/29 02:23:31;;;;;;;;;;;;;;;11.10;38.60;101483.22;5044183;28;20308;-83
2023/03/29 02:26:23;;;;;;;;;;;;;;;10.98;39.20;101479.34;5042774;28;19921;-83
2023/03/29 02:29:15;;;;;;;;;;;;;;;11.02;39.10;101477.69;5041132;28;19917;-83
2023/03/29 02:32:09;;;;;;;;;;;;;;;11.01;39.88;101471.41;5043881;28;19921;-83
2023/03/29 02:35:04;;;;;;;;;;;;;;;10.88;40.23;101469.47;5046421;28;20388;-83
2023/03/29 02:37:56;;;;;;;;;;;;;;;10.70;41.25;101473.03;5036753;28;19917;-83
2023/03/29 02:40:47;;;;;;;;;;;;;;;10.57;41.61;101463.72;5048705;28;19917;-83
2023/03/29 02:43:40;;;;;;;;;;;;;;;10.56;41.44;101470.28;5050196;28;19917;-83
2023/03/29 02:46:33;;;;;;;;;;;;;;;10.43;41.63;101465.59;5044463;28;19921;-83
2023/03/29 02:49:20;;;;;;;;;;;;;;;10.30;42.03;101463.63;5043459;28;19917;-86
2023/03/29 02:52:11;;;;;;;;;;;;;;;10.21;41.86;101454.50;5039032;28;19921;-83
2023/03/29 02:55:04;;;;;;;;;;;;;;;10.18;42.33;101457.81;5042737;28;19921;-83
2023/03/29 02:57:56;;;;;;;;;;;;;;;10.16;41.90;101463.53;5045903;28;20284;-83
2023/03/29 03:00:49;;;;;;;;;;;;;;;10.22;41.84;101466.97;5044986;28;19917;-82
2023/03/29 03:03:41;;;;;;;;;;;;;;;10.21;41.74;101468.09;5043789;28;20388;-83
2023/03/29 03:06:33;;;;;;;;;;;;;;;10.20;41.87;101472.72;5045953;28;20057;-83
2023/03/29 03:09:24;;;;;;;;;;;;;;;10.20;42.32;101472.72;5042142;28;19917;-83
2023/03/29 03:12:16;;;;;;;;;;;;;;;10.21;42.14;101463.44;5049118;28;19921;-83
2023/03/29 03:15:07;;;;;;;;;;;;;;;10.21;42.02;101468.88;5043698;28;19917;-83
2023/03/29 03:17:58;;;;;;;;;;;;;;;10.22;42.35;101466.97;5034748;28;19917;-83
2023/03/29 03:21:00;;;;;;;;;;;;;;;10.27;42.99;101464.19;5046007;28;19921;-83
2023/03/29 03:23:52;;;;;;;;;;;;;;;10.31;42.42;101453.56;5043394;28;19925;-83
2023/03/29 03:26:45;;;;;;;;;;;;;;;10.40;42.80;101457.22;5045534;28;20373;-83
2023/03/29 03:29:37;;;;;;;;;;;;;;;10.41;42.47;101464.28;5045447;28;20372;-83
2023/03/29 03:32:36;;;;;;;;;;;;;;;10.27;41.80;101465.00;5043700;28;19922;-83
2023/03/29 03:35:51;;;;;;;;;;;;;;;10.27;41.94;101461.47;5048364;28;19921;-83
2023/03/29 03:38:43;;;;;;;;;;;;;;;10.35;41.95;101443.69;5046480;28;19921;-83
2023/03/29 03:41:35;;;;;;;;;;;;;;;10.36;43.13;101451.56;5049788;28;20327;-83
2023/03/29 03:44:27;;;;;;;;;;;;;;;10.34;42.38;101461.09;5048372;28;19917;-83
2023/03/29 03:47:37;;;;;;;;;;;;;;;10.33;42.68;101470.38;5044042;28;19920;-83
2023/03/29 03:50:40;;;;;;;;;;;;;;;10.22;42.69;101475.13;5047269;28;19924;-83
2023/03/29 03:53:32;;;;;;;;;;;;;;;10.16;42.73;101466.25;5026730;28;19918;-83
2023/03/29 03:56:57;;;;;;;;;;;;;;;10.15;43.15;101453.75;5048764;28;19917;-83
2023/03/29 03:59:52;;;;;;;;;;;;;;;10.26;43.11;101452.50;5042427;28;19917;-83
2023/03/29 04:02:49;;;;;;;;;;;;;;;10.36;43.00;101456.19;5040413;28;19917;-83
2023/03/29 04:05:45;;;;;;;;;;;;;;;10.42;43.10;101465.88;5046964;28;19917;-82
2023/03/29 04:08:38;;;;;;;;;;;;;;;10.34;43.94;101464.63;5048811;28;19917;-83
2023/03/29 04:11:41;;;;;;;;;;;;;;;10.27;42.79;101465.00;5046434;28;19921;-84
2023/03/29 04:14:31;;;;;;;;;;;;;;;10.41;42.43;101456.13;5050896;28;19917;-83
2023/03/29 04:17:28;;;;;;;;;;;;;;;10.49;43.33;101463.59;5041865;28;19917;-83
2023/03/29 04:20:24;;;;;;;;;;;;;;;10.47;43.26;101463.06;5044144;28;20308;-84
2023/03/29 04:23:16;;;;;;;;;;;;;;;10.46;43.42;101466.91;5043364;28;19917;-83
2023/03/29 04:26:08;;;;;;;;;;;;;;;10.29;41.96;101462.81;5052067;28;19917;-83
2023/03/29 04:29:09;;;;;;;;;;;;;;;10.23;43.14;101458.53;5046440;28;19921;-85
2023/03/29 04:32:09;;;;;;;;;;;;;;;10.06;43.86;101466.34;5042352;28;19921;-83
2023/03/29 04:35:06;;;;;;;;;;;;;;;9.96;44.82;101474.66;5045094;28;19921;-84
2023/03/29 04:37:59;;;;;;;;;;;;;;;9.95;44.89;101472.25;5040691;28;19917;-83
2023/03/29 04:40:51;;;;;;;;;;;;;;;9.94;45.15;101482.31;5050619;28;20301;-83
2023/03/29 04:43:49;;;;;;;;;;;;;;;9.94;44.16;101478.78;5047258;28;19925;-83
2023/03/29 04:46:57;;;;;;;;;;;;;;;9.84;43.97;101482.44;5037173;28;19917;-83
2023/03/29 04:50:06;;;;;;;;;;;;;;;9.88;44.21;101478.03;5029637;28;19917;-83
2023/03/29 04:53:06;;;;;;;;;;;;;;;9.88;44.10;101481.56;5042744;28;19921;-83
2023/03/29 04:55:58;;;;;;;;;;;;;;;9.90;44.21;101486.72;5037769;28;20396;-84
2023/03/29 04:59:07;;;;;;;;;;;;;;;10.03;43.70;101485.97;5039937;28;19916;-83
2023/03/29 05:01:59;;;;;;;;;;;;;;;10.01;43.57;101488.16;5048494;28;20518;-83
2023/03/29 05:04:51;;;;;;;;;;;;;;;9.98;43.56;101491.47;5044352;28;19917;-83
2023/03/29 05:07:43;;;;;;;;;;;;;;;10.08;43.78;101495.97;5039302;28;19920;-83
2023/03/29 05:10:35;;;;;;;;;;;;;;;10.06;44.25;101493.53;5042211;28;19917;-85
2023/03/29 05:13:27;;;;;;;;;;;;;;;10.10;44.61;101491.88;5047347;28;19928;-84
2023/03/29 05:16:16;;;;;;;;;;;;;;;10.13;45.12;101485.03;5047254;28;19917;-84
2023/03/29 05:19:08;;;;;;;;;;;;;;;10.13;44.48;101482.31;5045693;28;20384;-83
2023/03/29 05:22:01;;;;;;;;;;;;;;;10.17;45.38;101494.22;5056277;28;19917;-78
2023/03/29 05:24:54;;;;;;;;;;;;;;;10.23;45.38;101491.16;5025908;28;19917;-78
2023/03/29 05:27:46;;;;;;;;;;;;;;;10.37;45.29;101484.97;5032934;28;19921;-77
2023/03/29 05:30:39;;;;;;;;;;;;;;;10.46;44.51;101492.19;5031029;28;20308;-77
2023/03/29 05:33:36;;;;;;;;;;;;;;;10.51;43.67;101492.13;5032986;28;20316;-78
2023/03/29 05:36:28;;;;;;;;;;;;;;;10.58;43.17;101483.56;5032954;28;19917;-78
2023/03/29 05:39:17;;;;;;;;;;;;;;;10.61;42.79;101486.53;5036719;28;19917;-78
2023/03/29 05:42:11;;;;;;;;;;;;;;;10.64;42.50;101485.91;5034197;28;19917;-80
2023/03/29 05:45:11;;;;;;;;;;;;;;;10.75;42.59;101492.00;5036743;28;20312;-78
2023/03/29 05:48:02;;;;;;;;;;;;;;;10.84;42.60;101503.81;5034685;28;19917;-78
2023/03/29 05:50:56;;;;;;;;;;;;;;;10.85;42.45;101512.78;5032279;28;20308;-79
2023/03/29 05:53:48;;;;;;;;;;;;;;;10.79;42.06;101514.78;5037126;28;19917;-78
2023/03/29 05:56:40;;;;;;;;;;;;;;;10.69;41.91;101501.34;5034298;28;19917;-78
2023/03/29 05:59:32;;;;;;;;;;;;;;;10.68;41.96;101507.88;5037549;28;19917;-78
2023/03/29 06:02:24;;;;;;;;;;;;;;;10.72;42.19;101500.75;5031682;28;19922;-77
2023/03/29 06:05:16;;;;;;;;;;;;;;;10.92;41.14;101514.00;5031022;28;19918;-78
2023/03/29 06:08:20;;;;;;;;;;;;;;;11.06;40.66;101514.88;5040361;28;19917;-78
2023/03/29 06:11:17;;;;;;;;;;;;;;;11.12;40.26;101527.25;5026488;28;19925;-78
2023/03/29 06:14:30;;;;;;;;;;;;;;;11.03;40.10;101530.97;5029037;28;19918;-78
2023/03/29 06:17:32;;;;;;;;;;;;;;;11.12;40.37;101530.00;5028703;28;20376;-78
2023/03/29 06:20:24;;;;;;;;;;;;;;;11.23;40.64;101536.06;5037137;28;19917;-78
2023/03/29 06:23:19;;;;;;;;;;;;;;;11.25;40.79;101528.41;5030342;28;19917;-77
2023/03/29 06:26:11;;;;;;;;;;;;;;;11.24;41.73;101526.00;5032154;28;20300;-77
2023/03/29 06:29:03;;;;;;;;;;;;;;;11.29;41.75;101518.53;5036011;28;20049;-79
2023/03/29 06:31:54;;;;;;;;;;;;;;;11.33;41.13;101516.81;5034000;28;19925;-79
2023/03/29 06:35:04;;;;;;;;;;;;;;;11.39;41.22;101510.19;5029929;28;20312;-80
2023/03/29 06:37:58;;;;;;;;;;;;;;;11.57;41.31;101517.47;5027201;28;19917;-79
2023/03/29 06:41:00;;;;;;;;;;;;;;;11.63;40.15;101520.88;5032877;28;19917;-78
2023/03/29 06:43:53;;;;;;;;;;;;;;;11.80;40.35;101523.03;5034356;28;20316;-79
2023/03/29 06:46:46;;;;;;;;;;;;;;;11.91;40.56;101530.72;5031936;28;19921;-79
2023/03/29 06:49:38;;;;;;;;;;;;;;;12.00;40.62;101544.44;5036296;28;19917;-79
2023/03/29 06:52:48;;;;;;;;;;;;;;;12.00;40.35;101538.97;5036912;28;19921;-79
2023/03/29 06:55:40;;;;;;;;;;;;;;;11.99;38.69;101542.81;5038532;28;20385;-80
2023/03/29 06:58:48;;;;;;;;;;;;;;;12.10;39.66;101537.94;5034495;28;19917;-78
2023/03/29 07:01:55;;;;;;;;;;;;;;;12.20;39.44;101543.19;5031303;28;19917;-79
2023/03/29 07:05:00;;;;;;;;;;;;;;;12.09;39.24;101558.97;5023186;28;19925;-80
2023/03/29 07:08:01;;;;;;;;;;;;;;;12.26;38.73;101558.34;5037822;28;19932;-80
2023/03/29 07:11:02;;;;;;;;;;;;;;;12.41;38.82;101560.72;5036652;28;19916;-81
2023/03/29 07:14:12;;;;;;;;;;;;;;;12.52;38.20;101548.47;5030297;28;19925;-80
2023/03/29 07:17:04;;;;;;;;;;;;;;;12.52;37.95;101561.31;5032913;28;20307;-80
2023/03/29 07:19:56;;;;;;;;;;;;;;;12.55;38.27;101571.59;5017391;28;19925;-81
2023/03/29 07:23:08;;;;;;;;;;;;;;;12.75;38.35;101582.03;5022022;28;19918;-81
2023/03/29 07:25:58;;;;;;;;;;;;;;;12.83;37.61;101587.59;5018993;28;19917;-81
2023/03/29 07:28:48;;;;;;;;;;;;;;;12.89;36.25;101577.38;5018011;28;19921;-83
2023/03/29 07:31:40;;;;;;;;;;;;;;;13.05;35.87;101591.47;5031495;28;20396;-85
2023/03/29 07:35:01;;;;;;;;;;;;;;;13.15;35.58;101585.78;5007300;28;20373;-81
2023/03/29 07:37:54;;;;;;;;;;;;;;;13.27;35.77;101591.47;5036948;28;19917;-81
2023/03/29 07:40:47;;;;;;;;;;;;;;;13.33;34.36;101592.16;5038383;28;19917;-82
2023/03/29 07:44:07;;;;;;;;;;;;;;;13.45;32.39;101593.22;5044868;28;19917;-80
2023/03/29 07:47:02;;;;;;;;;;;;;;;13.55;32.78;101590.22;5038996;28;19917;-81
2023/03/29 07:49:54;;;;;;;;;;;;;;;13.65;32.49;101587.19;5042974;28;19917;-82
2023/03/29 07:52:46;;;;;;;;;;;;;;;13.75;32.49;101582.56;5038925;28;20292;-82
2023/03/29 07:55:36;;;;;;;;;;;;;;;13.80;32.25;101585.16;5036196;28;19917;-82
2023/03/29 07:58:41;;;;;;;;;;;;;;;13.82;32.84;101582.91;5041351;28;19921;-81
2023/03/29 08:01:31;;;;;;;;;;;;;;;13.99;33.42;101591.19;5039154;28;19917;-82
2023/03/29 08:04:38;;;;;;;;;;;;;;;14.07;33.54;101591.22;5042214;28;19917;-82
2023/03/29 08:07:40;;;;;;;;;;;;;;;14.22;33.37;101583.72;5040757;28;20551;-81
2023/03/29 08:11:02;;;;;;;;;;;;;;;14.40;33.27;101580.72;5031832;28;20388;-82
2023/03/29 08:14:30;;;;;;;;;;;;;;;14.51;33.60;101579.28;5031373;28;19921;-81
2023/03/29 08:17:26;;;;;;;;;;;;;;;14.62;33.37;101559.81;5033329;28;19917;-81
2023/03/29 08:20:18;;;;;;;;;;;;;;;14.66;33.42;101564.31;5033541;28;19917;-81
2023/03/29 08:23:10;;;;;;;;;;;;;;;14.74;32.93;101562.69;5034452;28;19917;-81
2023/03/29 08:26:20;;;;;;;;;;;;;;;14.86;32.73;101557.38;5042683;28;19917;-80
2023/03/29 08:29:12;;;;;;;;;;;;;;;14.97;32.95;101559.47;5041823;28;19917;-80
2023/03/29 08:32:03;;;;;;;;;;;;;;;15.04;32.93;101564.44;5044225;28;19921;-81
2023/03/29 08:34:55;;;;;;;;;;;;;;;15.13;32.90;101565.25;5041443;28;19917;-81
2023/03/29 08:37:50;;;;;;;;;;;;;;;15.27;32.56;101554.91;5045318;28;19916;-80
2023/03/29 08:40:42;;;;;;;;;;;;;;;15.40;32.83;101561.31;5043358;28;19918;-81
2023/03/29 08:43:53;;;;;;;;;;;;;;;15.48;32.32;101562.44;5041126;28;19917;-81
2023/03/29 08:47:19;;;;;;;;;;;;;;;15.62;32.34;101563.84;5039086;28;20304;-81
2023/03/29 08:50:13;;;;;;;;;;;;;;;15.73;32.40;101569.78;5045722;28;20412;-81
2023/03/29 08:53:19;;;;;;;;;;;;;;;15.82;32.06;101567.81;5041419;28;19921;-81
2023/03/29 08:56:33;;;;;;;;;;;;;;;15.91;31.90;101565.00;5038711;28;20376;-80
2023/03/29 08:59:33;;;;;;;;;;;;;;;15.94;32.49;101565.19;5043406;28;19917;-81
2023/03/29 09:02:26;;;;;;;;;;;;;;;16.07;32.20;101555.09;5040390;28;19917;-81
2023/03/29 09:05:27;;;;;;;;;;;;;;;16.14;32.19;101550.72;5038950;28;20326;-81
2023/03/29 09:08:26;;;;;;;;;;;;;;;16.24;32.93;101553.06;5037444;28;19917;-81
2023/03/29 09:11:35;;;;;;;;;;;;;;;16.35;33.02;101545.25;5044324;28;19917;-81
2023/03/29 09:14:31;;;;;;;;;;;;;;;16.42;33.50;101541.94;5040537;28;19921;-81
2023/03/29 09:17:31;;;;;;;;;;;;;;;16.45;33.86;101552.28;5038430;28;19917;-80
2023/03/29 09:20:27;;;;;;;;;;;;;;;16.52;33.73;101556.09;5038110;28;19917;-80
2023/03/29 09:23:40;;;;;;;;;;;;;;;16.58;33.71;101548.44;5036059;28;19917;-81
2023/03/29 09:26:46;;;;;;;;;;;;;;;16.64;32.51;101536.97;5013027;28;19917;-81
2023/03/29 09:29:55;;;;;;;;;;;;;;;16.75;32.69;101542.84;5039956;28;20368;-81
2023/03/29 09:32:56;;;;;;;;;;;;;;;16.84;33.38;101538.09;5040902;28;19921;-81
2023/03/29 09:36:12;;;;;;;;;;;;;;;16.86;33.13;101541.31;5039551;28;19917;-81
2023/03/29 09:39:05;;;;;;;;;;;;;;;16.94;31.63;101532.16;5041873;28;19917;-80
2023/03/29 09:42:00;;;;;;;;;;;;;;;17.01;33.45;101537.94;5032568;28;19917;-81
2023/03/29 09:44:51;;;;;;;;;;;;;;;17.11;33.32;101533.94;5043175;28;19917;-82
2023/03/29 09:47:48;;;;;;;;;;;;;;;17.12;32.84;101540.25;5046086;28;19917;-81
2023/03/29 09:50:39;;;;;;;;;;;;;;;17.20;34.10;101522.84;5039345;28;19917;-81
2023/03/29 09:53:31;;;;;;;;;;;;;;;17.26;34.76;101527.81;5042037;28;20309;-81
2023/03/29 09:56:31;;;;;;;;;;;;;;;17.27;32.43;101520.38;5039821;28;19917;-81
2023/03/29 09:59:30;;;;;;;;;;;;;;;17.37;32.18;101517.94;5041681;28;19921;-81
2023/03/29 10:02:22;;;;;;;;;;;;;;;17.40;34.21;101521.97;5041040;28;19917;-82
2023/03/29 10:05:14;;;;;;;;;;;;;;;17.48;35.03;101518.31;5043789;28;19918;-81
2023/03/29 10:08:13;;;;;;;;;;;;;;;17.56;34.12;101511.91;5036290;28;20300;-81
2023/03/29 10:11:08;;;;;;;;;;;;;;;17.63;34.69;101514.09;5019865;28;19921;-81
2023/03/29 10:14:01;;;;;;;;;;;;;;;17.64;34.01;101508.28;5029791;28;19921;-81
2023/03/29 10:16:56;;;;;;;;;;;;;;;17.74;34.30;101507.81;5040395;28;19917;-82
2023/03/29 10:19:50;;;;;;;;;;;;;;;17.80;34.22;101497.38;5038752;28;19925;-82
2023/03/29 10:22:47;;;;;;;;;;;;;;;17.93;34.57;101488.75;5038780;28;19917;-81
2023/03/29 10:25:39;;;;;;;;;;;;;;;18.00;33.76;101479.13;5034157;28;19924;-80
2023/03/29 10:28:29;;;;;;;;;;;;;;;18.03;34.97;101487.50;5027864;28;19917;-80
2023/03/29 10:31:21;;;;;;;;;;;;;;;18.07;36.04;101485.66;5034266;28;19917;-80
2023/03/29 10:34:15;;;;;;;;;;;;;;;18.14;36.52;101476.81;5033078;28;20285;-81
2023/03/29 10:37:07;;;;;;;;;;;;;;;18.18;35.68;101472.22;5031968;28;19917;-82
2023/03/29 10:39:59;;;;;;;;;;;;;;;18.21;36.34;101472.31;5035064;28;20400;-81
2023/03/29 10:42:49;;;;;;;;;;;;;;;18.29;37.01;101465.88;5035849;28;19925;-82
2023/03/29 10:45:42;;;;;;;;;;;;;;;18.32;36.78;101467.13;5039447;28;19917;-80
2023/03/29 10:48:35;;;;;;;;;;;;;;;18.30;36.43;101456.47;5036297;28;19917;-81
2023/03/29 10:51:28;;;;;;;;;;;;;;;18.35;35.77;101460.91;5035093;28;19917;-81
2023/03/29 10:54:22;;;;;;;;;;;;;;;18.42;35.60;101466.66;5037618;28;19921;-81
2023/03/29 10:57:14;;;;;;;;;;;;;;;18.44;35.61;101458.03;5039419;28;19917;-81
2023/03/29 11:00:16;;;;;;;;;;;;;;;18.53;35.78;101459.50;5027971;28;19917;-81
2023/03/29 11:03:17;;;;;;;;;;;;;;;18.59;35.78;101441.56;5038750;28;19917;-80
2023/03/29 11:06:17;;;;;;;;;;;;;;;18.64;36.94;101446.81;5042040;28;19917;-81
2023/03/29 11:09:15;;;;;;;;;;;;;;;18.65;35.16;101439.34;5039005;28;19917;-81
2023/03/29 11:12:08;;;;;;;;;;;;;;;18.65;35.86;101447.63;5036594;28;19917;-81
2023/03/29 11:15:03;;;;;;;;;;;;;;;24.46;25.61;101451.41;5032661;28;19917;-78
2023/03/29 11:17:56;;;;;;;;;;;;;;;27.96;21.18;101443.84;5024420;28;20303;-77
2023/03/29 11:20:48;;;;;;;;;;;;;;;28.46;20.04;101453.22;5035652;28;19917;-78
2023/03/29 11:23:46;;;;;;;;;;;;;;;27.43;20.94;101447.16;5031314;28;19917;-77
2023/03/29 11:26:53;;;;;;;;;;;;;;;30.48;18.15;101432.16;5031067;28;19917;-77
2023/03/29 11:29:52;;;;;;;;;;;;;;;27.88;20.83;101422.75;5033736;28;19921;-78
2023/03/29 11:33:00;;;;;;;;;;;;;;;28.00;20.09;101420.22;5032156;28;19921;-78
2023/03/29 11:36:03;;;;;;;;;;;;;;;28.11;20.26;101430.47;5032124;28;19917;-78
2023/03/29 11:39:08;;;;;;;;;;;;;;;27.86;20.06;101417.59;5032257;28;19921;-78
2023/03/29 11:42:01;;;;;;;;;;;;;;;24.56;23.61;101409.72;5023981;28;20376;-78
2023/03/29 11:44:55;;;;;;;;;;;;;;;24.53;23.32;101415.28;5023818;28;19921;-80
2023/03/29 11:47:46;;;;;;;;;;;;;;;21.69;28.11;101409.94;5030180;28;20396;-78
2023/03/29 11:50:37;;;;;;;;;;;;;;;20.95;29.14;101405.16;5033507;28;19921;-77
2023/03/29 11:53:32;;;;;;;;;;;;;;;21.13;28.97;101412.59;5029640;28;19944;-79
2023/03/29 11:56:26;;;;;;;;;;;;;;;20.24;29.97;101409.31;5031108;28;19917;-78
2023/03/29 11:59:19;;;;;;;;;;;;;;;20.43;29.84;101417.63;5034979;28;19917;-78
2023/03/29 12:02:18;;;;;;;;;;;;;;;20.69;29.25;101403.91;5026530;28;19916;-78
2023/03/29 12:05:18;;;;;;;;;;;;;;;20.27;30.22;101403.84;5040213;28;19917;-78
2023/03/29 12:08:09;;;;;;;;;;;;;;;19.68;31.25;101403.38;5038523;28;19917;-79
2023/03/29 12:11:15;;;;;;;;;;;;;;;19.47;31.33;101404.47;5041702;28;19917;-77
2023/03/29 12:14:14;;;;;;;;;;;;;;;19.71;31.29;101391.63;5047861;28;19921;-82
2023/03/29 12:17:07;;;;;;;;;;;;;;;19.51;31.35;101388.81;5038235;28;19917;-79
2023/03/29 12:20:01;;;;;;;;;;;;;;;19.40;31.93;101386.94;5038294;28;19917;-82
2023/03/29 12:22:54;;;;;;;;;;;;;;;25.12;23.51;101378.41;5047537;28;19916;-81
2023/03/29 12:25:59;;;;;;;;;;;;;;;31.18;16.85;101387.56;5044229;28;19917;-82
2023/03/29 12:28:55;;;;;;;;;;;;;;;32.33;14.61;101386.00;5045155;28;19999;-82
2023/03/29 12:31:56;;;;;;;;;;;;;;;31.47;15.27;101389.63;5042507;28;19918;-81
2023/03/29 12:34:59;;;;;;;;;;;;;;;32.53;14.75;101387.34;5043601;28;19921;-82
2023/03/29 12:38:20;;;;;;;;;;;;;;;32.06;14.92;101387.16;5038775;28;19917;-82
2023/03/29 12:41:27;;;;;;;;;;;;;;;31.39;15.51;101395.44;5042507;28;20299;-82
2023/03/29 12:44:39;;;;;;;;;;;;;;;32.12;14.79;101378.97;5042311;28;20327;-82
2023/03/29 12:47:45;;;;;;;;;;;;;;;32.78;13.91;101383.78;5041163;28;19917;-82
2023/03/29 12:50:45;;;;;;;;;;;;;;;30.49;16.15;101355.94;5044173;28;20319;-81
2023/03/29 12:53:40;;;;;;;;;;;;;;;30.81;16.47;101362.78;5042368;28;19921;-81
2023/03/29 12:56:49;;;;;;;;;;;;;;;29.47;18.07;101358.84;5040929;28;19917;-81
2023/03/29 12:59:51;;;;;;;;;;;;;;;29.48;17.68;101363.22;5006177;28;19917;-82
2023/03/29 13:02:44;;;;;;;;;;;;;;;29.34;17.15;101357.88;5040389;28;19918;-83
2023/03/29 13:05:35;;;;;;;;;;;;;;;31.09;16.33;101359.28;5043413;28;19947;-83
2023/03/29 13:08:27;;;;;;;;;;;;;;;30.01;17.20;101348.16;5039617;28;20299;-83
2023/03/29 13:11:32;;;;;;;;;;;;;;;30.79;16.32;101334.34;5038452;28;19917;-82
2023/03/29 13:14:26;;;;;;;;;;;;;;;32.51;15.12;101338.38;5041172;28;19921;-83
2023/03/29 13:17:36;;;;;;;;;;;;;;;32.46;15.51;101344.56;5039079;28;19917;-81
2023/03/29 13:20:39;;;;;;;;;;;;;;;31.94;15.28;101333.69;5040412;28;19917;-82
2023/03/29 13:23:38;;;;;;;;;;;;;;;32.75;14.11;101328.34;5047270;28;19917;-82
2023/03/29 13:26:42;;;;;;;;;;;;;;;31.27;15.13;101320.28;5043451;28;19917;-81
2023/03/29 13:29:40;;;;;;;;;;;;;;;30.18;16.14;101321.72;5042731;28;20384;-82
2023/03/29 13:32:39;;;;;;;;;;;;;;;30.95;15.95;101331.53;5044202;28;19921;-82
2023/03/29 13:35:44;;;;;;;;;;;;;;;28.21;17.92;101326.06;5040923;28;19917;-82
2023/03/29 13:38:45;;;;;;;;;;;;;;;26.04;20.42;101313.31;5042701;28;19917;-81
2023/03/29 13:41:43;;;;;;;;;;;;;;;27.30;19.34;101323.16;5042180;28;19917;-82
2023/03/29 13:44:40;;;;;;;;;;;;;;;29.77;17.58;101312.97;5041677;28;19917;-82
2023/03/29 13:47:38;;;;;;;;;;;;;;;29.36;17.29;101305.00;5022467;28;19917;-82
2023/03/29 13:50:35;;;;;;;;;;;;;;;28.90;16.88;101309.41;5025160;28;19918;-82
2023/03/29 13:53:28;;;;;;;;;;;;;;;28.26;17.98;101306.81;5030931;28;19922;-81
2023/03/29 13:56:20;;;;;;;;;;;;;;;27.98;18.18;101310.00;5030649;28;19917;-81
2023/03/29 13:59:34;;;;;;;;;;;;;;;27.72;18.82;101305.16;5038295;28;20385;-82
2023/03/29 14:02:50;;;;;;;;;;;;;;;28.28;18.53;101301.59;5036930;28;20296;-81
2023/03/29 14:05:44;;;;;;;;;;;;;;;29.27;17.86;101299.13;5039586;28;19917;-81
2023/03/29 14:08:43;;;;;;;;;;;;;;;28.56;18.53;101286.38;5038108;28;19925;-81
2023/03/29 14:11:35;;;;;;;;;;;;;;;26.76;19.24;101286.56;5036099;28;19917;-81
2023/03/29 14:14:28;;;;;;;;;;;;;;;27.30;19.35;101293.22;5034973;28;19921;-81
2023/03/29 14:17:20;;;;;;;;;;;;;;;26.05;19.89;101289.81;5018275;28;19917;-81
2023/03/29 14:20:15;;;;;;;;;;;;;;;26.91;19.69;101271.28;5024962;28;19917;-81
2023/03/29 14:23:11;;;;;;;;;;;;;;;26.19;20.45;101275.78;5032947;28;19917;-82
2023/03/29 14:26:27;;;;;;;;;;;;;;;25.17;22.34;101265.06;5032020;28;19917;-82
2023/03/29 14:29:19;;;;;;;;;;;;;;;23.51;24.86;101268.41;5035013;28;20319;-81
2023/03/29 14:32:18;;;;;;;;;;;;;;;23.07;26.46;101269.28;5039251;28;19921;-81
2023/03/29 14:35:10;;;;;;;;;;;;;;;22.02;27.46;101270.75;5034043;28;19921;-82
2023/03/29 14:38:02;;;;;;;;;;;;;;;21.75;28.23;101271.97;5018557;28;19937;-81
2023/03/29 14:40:55;;;;;;;;;;;;;;;21.33;28.36;101272.25;5030569;28;19917;-81
2023/03/29 14:43:48;;;;;;;;;;;;;;;21.32;28.91;101274.22;5037331;28;19917;-82
2023/03/29 14:46:40;;;;;;;;;;;;;;;21.17;29.22;101274.38;5038198;28;19917;-81
2023/03/29 14:49:32;;;;;;;;;;;;;;;20.90;30.52;101273.53;5036784;28;19917;-82
2023/03/29 14:52:24;;;;;;;;;;;;;;;20.93;30.89;101278.31;5034625;28;19917;-81
2023/03/29 14:55:18;;;;;;;;;;;;;;;21.00;30.55;101280.41;5032077;28;19944;-81
2023/03/29 14:58:16;;;;;;;;;;;;;;;20.76;30.93;101276.91;5039801;28;19917;-81
2023/03/29 15:01:14;;;;;;;;;;;;;;;20.79;30.91;101275.34;5032722;28;19921;-81
2023/03/29 15:04:10;;;;;;;;;;;;;;;20.39;31.87;101273.91;5038635;28;19917;-82
2023/03/29 15:07:03;;;;;;;;;;;;;;;20.30;32.12;101275.28;5039563;28;19917;-82
2023/03/29 15:09:52;;;;;;;;;;;;;;;20.19;32.04;101269.56;5035180;28;19925;-80